Terminal Aerodrome Forecast
Issued by NWS

Home | Current Version | Previous Version | Text Only | Print | Product List | Glossary On
Versions: 1 2 3 4 5 6 7 8 9 10 11 12 13 14 15 16 17 18 19 20 21
000
FTUS43 KAPX 302320
TAFAPN
TAF
KAPN 302320Z 3100/3124 07005KT P6SM SKC
     FM310200 00000KT P6SM SKC
     FM310800 00000KT 2SM BR BKN005
     FM311400 21005KT P6SM SCT018=

USA.gov is the U.S. government's official web portal to all federal, state and local government web resources and services.